sensor_id;sensor_type;location;lat;lon;timestamp;temperature;humidity
30399;DHT22;17195;50.838;7.214;2023-05-29T00:00:45;15.50;99.90
30399;DHT22;17195;50.838;7.214;2023-05-29T00:03:10;15.40;99.90
30399;DHT22;17195;50.838;7.214;2023-05-29T00:05:36;15.30;99.90
30399;DHT22;17195;50.838;7.214;2023-05-29T00:08:01;15.30;99.90
30399;DHT22;17195;50.838;7.214;2023-05-29T00:10:27;15.20;99.90
30399;DHT22;17195;50.838;7.214;2023-05-29T00:12:53;15.20;99.90
30399;DHT22;17195;50.838;7.214;2023-05-29T00:15:18;15.10;99.90
30399;DHT22;17195;50.838;7.214;2023-05-29T00:17:44;15.00;99.90
30399;DHT22;17195;50.838;7.214;2023-05-29T00:20:10;14.90;99.90
30399;DHT22;17195;50.838;7.214;2023-05-29T00:22:37;14.80;99.90
30399;DHT22;17195;50.838;7.214;2023-05-29T00:25:04;14.80;99.90
30399;DHT22;17195;50.838;7.214;2023-05-29T00:27:30;14.70;99.90
30399;DHT22;17195;50.838;7.214;2023-05-29T00:29:58;14.60;99.90
30399;DHT22;17195;50.838;7.214;2023-05-29T00:32:23;14.50;99.90
30399;DHT22;17195;50.838;7.214;2023-05-29T00:34:49;14.40;99.90
30399;DHT22;17195;50.838;7.214;2023-05-29T00:37:15;14.40;99.90
30399;DHT22;17195;50.838;7.214;2023-05-29T00:39:41;14.30;99.90
30399;DHT22;17195;50.838;7.214;2023-05-29T00:42:06;14.20;99.90
30399;DHT22;17195;50.838;7.214;2023-05-29T00:44:32;14.10;99.90
30399;DHT22;17195;50.838;7.214;2023-05-29T00:46:58;14.10;99.90
30399;DHT22;17195;50.838;7.214;2023-05-29T00:49:24;14.00;99.90
30399;DHT22;17195;50.838;7.214;2023-05-29T00:51:51;13.90;99.90
30399;DHT22;17195;50.838;7.214;2023-05-29T00:54:21;13.80;99.90
30399;DHT22;17195;50.838;7.214;2023-05-29T00:56:48;13.70;99.90
30399;DHT22;17195;50.838;7.214;2023-05-29T00:59:13;13.70;99.90
30399;DHT22;17195;50.838;7.214;2023-05-29T01:01:40;13.60;99.90
30399;DHT22;17195;50.838;7.214;2023-05-29T01:04:06;13.50;99.90
30399;DHT22;17195;50.838;7.214;2023-05-29T01:06:32;13.50;99.90
30399;DHT22;17195;50.838;7.214;2023-05-29T01:08:58;13.40;99.90
30399;DHT22;17195;50.838;7.214;2023-05-29T01:14:10;13.30;99.90
30399;DHT22;17195;50.838;7.214;2023-05-29T01:16:51;13.30;99.90
30399;DHT22;17195;50.838;7.214;2023-05-29T01:19:50;13.20;99.90
30399;DHT22;17195;50.838;7.214;2023-05-29T01:27:30;13.10;99.90
30399;DHT22;17195;50.838;7.214;2023-05-29T01:29:58;13.00;99.90
30399;DHT22;17195;50.838;7.214;2023-05-29T01:32:24;12.90;99.90
30399;DHT22;17195;50.838;7.214;2023-05-29T01:34:51;12.90;99.90
30399;DHT22;17195;50.838;7.214;2023-05-29T01:37:16;12.80;99.90
30399;DHT22;17195;50.838;7.214;2023-05-29T01:39:42;12.80;99.90
30399;DHT22;17195;50.838;7.214;2023-05-29T01:42:08;12.70;99.90
30399;DHT22;17195;50.838;7.214;2023-05-29T01:44:35;12.70;99.90
30399;DHT22;17195;50.838;7.214;2023-05-29T01:47:02;12.60;99.90
30399;DHT22;17195;50.838;7.214;2023-05-29T01:49:28;12.60;99.90
30399;DHT22;17195;50.838;7.214;2023-05-29T01:51:55;12.50;99.90
30399;DHT22;17195;50.838;7.214;2023-05-29T01:54:21;12.50;99.90
30399;DHT22;17195;50.838;7.214;2023-05-29T01:56:46;12.40;99.90
30399;DHT22;17195;50.838;7.214;2023-05-29T01:59:13;12.30;99.90
30399;DHT22;17195;50.838;7.214;2023-05-29T02:01:39;12.30;99.90
30399;DHT22;17195;50.838;7.214;2023-05-29T02:04:05;12.20;99.90
30399;DHT22;17195;50.838;7.214;2023-05-29T02:06:31;12.20;99.90
30399;DHT22;17195;50.838;7.214;2023-05-29T02:08:58;12.20;99.90
30399;DHT22;17195;50.838;7.214;2023-05-29T02:11:24;12.20;99.90
30399;DHT22;17195;50.838;7.214;2023-05-29T02:13:51;12.20;99.90
30399;DHT22;17195;50.838;7.214;2023-05-29T02:16:17;12.30;99.90
30399;DHT22;17195;50.838;7.214;2023-05-29T02:18:45;12.30;99.90
30399;DHT22;17195;50.838;7.214;2023-05-29T02:21:11;12.20;99.90
30399;DHT22;17195;50.838;7.214;2023-05-29T02:23:37;12.30;99.90
30399;DHT22;17195;50.838;7.214;2023-05-29T02:26:02;12.20;99.90
30399;DHT22;17195;50.838;7.214;2023-05-29T02:28:28;12.20;99.90
30399;DHT22;17195;50.838;7.214;2023-05-29T02:30:53;12.20;99.90
30399;DHT22;17195;50.838;7.214;2023-05-29T02:33:19;12.20;99.90
30399;DHT22;17195;50.838;7.214;2023-05-29T02:35:45;12.10;99.90
30399;DHT22;17195;50.838;7.214;2023-05-29T02:38:10;12.10;99.90
30399;DHT22;17195;50.838;7.214;2023-05-29T02:40:36;12.10;99.90
30399;DHT22;17195;50.838;7.214;2023-05-29T02:43:01;12.10;99.90
30399;DHT22;17195;50.838;7.214;2023-05-29T02:45:27;12.10;99.90
30399;DHT22;17195;50.838;7.214;2023-05-29T02:47:52;12.10;99.90
30399;DHT22;17195;50.838;7.214;2023-05-29T02:50:18;12.10;99.90
30399;DHT22;17195;50.838;7.214;2023-05-29T02:52:44;12.10;99.90
30399;DHT22;17195;50.838;7.214;2023-05-29T02:55:09;12.00;99.90
30399;DHT22;17195;50.838;7.214;2023-05-29T02:57:35;12.00;99.90
30399;DHT22;17195;50.838;7.214;2023-05-29T03:00:00;11.90;99.90
30399;DHT22;17195;50.838;7.214;2023-05-29T03:02:26;12.00;99.90
30399;DHT22;17195;50.838;7.214;2023-05-29T03:04:52;12.00;99.90
30399;DHT22;17195;50.838;7.214;2023-05-29T03:07:19;12.00;99.90
30399;DHT22;17195;50.838;7.214;2023-05-29T03:09:45;11.90;99.90
30399;DHT22;17195;50.838;7.214;2023-05-29T03:12:10;11.90;99.90
30399;DHT22;17195;50.838;7.214;2023-05-29T03:14:36;11.90;99.90
30399;DHT22;17195;50.838;7.214;2023-05-29T03:17:04;11.80;99.90
30399;DHT22;17195;50.838;7.214;2023-05-29T03:19:30;11.80;99.90
30399;DHT22;17195;50.838;7.214;2023-05-29T03:21:56;11.80;99.90
30399;DHT22;17195;50.838;7.214;2023-05-29T03:24:21;11.80;99.90
30399;DHT22;17195;50.838;7.214;2023-05-29T03:26:49;11.80;99.90
30399;DHT22;17195;50.838;7.214;2023-05-29T03:29:15;11.70;99.90
30399;DHT22;17195;50.838;7.214;2023-05-29T03:31:41;11.70;99.90
30399;DHT22;17195;50.838;7.214;2023-05-29T03:34:07;11.70;99.90
30399;DHT22;17195;50.838;7.214;2023-05-29T03:36:32;11.70;99.90
30399;DHT22;17195;50.838;7.214;2023-05-29T03:38:58;11.70;99.90
30399;DHT22;17195;50.838;7.214;2023-05-29T03:41:24;11.70;99.90
30399;DHT22;17195;50.838;7.214;2023-05-29T03:43:50;11.70;99.90
30399;DHT22;17195;50.838;7.214;2023-05-29T03:46:16;11.70;99.90
30399;DHT22;17195;50.838;7.214;2023-05-29T03:48:41;11.70;99.90
30399;DHT22;17195;50.838;7.214;2023-05-29T03:51:07;11.70;99.90
30399;DHT22;17195;50.838;7.214;2023-05-29T03:53:33;11.70;99.90
30399;DHT22;17195;50.838;7.214;2023-05-29T03:55:58;11.70;99.90
30399;DHT22;17195;50.838;7.214;2023-05-29T03:58:24;11.70;99.90
30399;DHT22;17195;50.838;7.214;2023-05-29T04:00:49;11.70;99.90
30399;DHT22;17195;50.838;7.214;2023-05-29T04:03:15;11.70;99.90
30399;DHT22;17195;50.838;7.214;2023-05-29T04:05:40;11.70;99.90
30399;DHT22;17195;50.838;7.214;2023-05-29T04:08:06;11.80;99.90
30399;DHT22;17195;50.838;7.214;2023-05-29T04:10:34;11.80;99.90
30399;DHT22;17195;50.838;7.214;2023-05-29T04:13:00;11.80;99.90
30399;DHT22;17195;50.838;7.214;2023-05-29T04:15:27;11.90;99.90
30399;DHT22;17195;50.838;7.214;2023-05-29T04:17:53;11.90;99.90
30399;DHT22;17195;50.838;7.214;2023-05-29T04:20:19;11.90;99.90
30399;DHT22;17195;50.838;7.214;2023-05-29T04:22:45;12.00;99.90
30399;DHT22;17195;50.838;7.214;2023-05-29T04:25:11;12.00;99.90
30399;DHT22;17195;50.838;7.214;2023-05-29T04:27:36;12.10;99.90
30399;DHT22;17195;50.838;7.214;2023-05-29T04:30:04;12.20;99.90
30399;DHT22;17195;50.838;7.214;2023-05-29T04:32:30;12.20;99.90
30399;DHT22;17195;50.838;7.214;2023-05-29T04:34:56;12.30;99.90
30399;DHT22;17195;50.838;7.214;2023-05-29T04:37:21;12.30;99.90
30399;DHT22;17195;50.838;7.214;2023-05-29T04:39:54;12.40;99.90
30399;DHT22;17195;50.838;7.214;2023-05-29T04:42:20;12.40;99.90
30399;DHT22;17195;50.838;7.214;2023-05-29T04:44:45;12.40;99.90
30399;DHT22;17195;50.838;7.214;2023-05-29T04:47:11;12.40;99.90
30399;DHT22;17195;50.838;7.214;2023-05-29T04:49:39;12.40;99.90
30399;DHT22;17195;50.838;7.214;2023-05-29T04:52:04;12.50;99.90
30399;DHT22;17195;50.838;7.214;2023-05-29T04:54:30;12.50;99.90
30399;DHT22;17195;50.838;7.214;2023-05-29T04:56:55;12.60;99.90
30399;DHT22;17195;50.838;7.214;2023-05-29T04:59:21;12.60;99.90
30399;DHT22;17195;50.838;7.214;2023-05-29T05:01:46;12.60;99.90
30399;DHT22;17195;50.838;7.214;2023-05-29T05:04:13;12.60;99.90
30399;DHT22;17195;50.838;7.214;2023-05-29T05:06:38;12.70;99.90
30399;DHT22;17195;50.838;7.214;2023-05-29T05:09:04;12.80;99.90
30399;DHT22;17195;50.838;7.214;2023-05-29T05:11:30;12.80;99.90
30399;DHT22;17195;50.838;7.214;2023-05-29T05:13:55;12.80;99.90
30399;DHT22;17195;50.838;7.214;2023-05-29T05:16:21;12.80;99.90
30399;DHT22;17195;50.838;7.214;2023-05-29T05:18:46;12.80;99.90
30399;DHT22;17195;50.838;7.214;2023-05-29T05:21:12;12.90;99.90
30399;DHT22;17195;50.838;7.214;2023-05-29T05:23:37;12.90;99.90
30399;DHT22;17195;50.838;7.214;2023-05-29T05:26:03;13.00;99.90
30399;DHT22;17195;50.838;7.214;2023-05-29T05:28:28;13.10;99.90
30399;DHT22;17195;50.838;7.214;2023-05-29T05:30:54;13.20;99.90
30399;DHT22;17195;50.838;7.214;2023-05-29T05:33:19;13.20;99.90
30399;DHT22;17195;50.838;7.214;2023-05-29T05:35:45;13.20;99.90
30399;DHT22;17195;50.838;7.214;2023-05-29T05:38:11;13.30;99.90
30399;DHT22;17195;50.838;7.214;2023-05-29T05:40:36;13.40;99.90
30399;DHT22;17195;50.838;7.214;2023-05-29T05:43:02;13.40;99.90
30399;DHT22;17195;50.838;7.214;2023-05-29T05:45:27;13.50;99.90
30399;DHT22;17195;50.838;7.214;2023-05-29T05:47:53;13.50;99.90
30399;DHT22;17195;50.838;7.214;2023-05-29T05:50:18;13.70;99.90
30399;DHT22;17195;50.838;7.214;2023-05-29T05:52:44;13.60;99.90
30399;DHT22;17195;50.838;7.214;2023-05-29T05:55:10;13.70;99.90
30399;DHT22;17195;50.838;7.214;2023-05-29T05:57:36;13.90;99.90
30399;DHT22;17195;50.838;7.214;2023-05-29T06:00:03;14.00;99.90
30399;DHT22;17195;50.838;7.214;2023-05-29T06:02:38;14.10;99.90
30399;DHT22;17195;50.838;7.214;2023-05-29T06:05:08;14.20;99.90
30399;DHT22;17195;50.838;7.214;2023-05-29T06:07:34;14.20;99.90
30399;DHT22;17195;50.838;7.214;2023-05-29T06:10:01;14.20;99.90
30399;DHT22;17195;50.838;7.214;2023-05-29T06:12:26;14.20;99.90
30399;DHT22;17195;50.838;7.214;2023-05-29T06:14:52;14.40;99.90
30399;DHT22;17195;50.838;7.214;2023-05-29T06:17:18;14.30;99.90
30399;DHT22;17195;50.838;7.214;2023-05-29T06:19:43;14.30;99.90
30399;DHT22;17195;50.838;7.214;2023-05-29T06:22:09;14.30;99.90
30399;DHT22;17195;50.838;7.214;2023-05-29T06:24:34;14.40;99.90
30399;DHT22;17195;50.838;7.214;2023-05-29T06:27:00;14.50;99.90
30399;DHT22;17195;50.838;7.214;2023-05-29T06:29:26;14.50;99.90
30399;DHT22;17195;50.838;7.214;2023-05-29T06:31:52;14.60;99.90
30399;DHT22;17195;50.838;7.214;2023-05-29T06:34:17;14.70;99.90
30399;DHT22;17195;50.838;7.214;2023-05-29T06:36:43;14.80;99.90
30399;DHT22;17195;50.838;7.214;2023-05-29T06:39:09;14.90;99.90
30399;DHT22;17195;50.838;7.214;2023-05-29T06:41:35;15.00;99.90
30399;DHT22;17195;50.838;7.214;2023-05-29T06:44:01;15.00;99.90
30399;DHT22;17195;50.838;7.214;2023-05-29T06:46:26;15.00;99.90
30399;DHT22;17195;50.838;7.214;2023-05-29T06:48:52;15.00;99.90
30399;DHT22;17195;50.838;7.214;2023-05-29T06:51:17;15.10;99.90
30399;DHT22;17195;50.838;7.214;2023-05-29T06:53:43;15.20;99.90
30399;DHT22;17195;50.838;7.214;2023-05-29T06:56:09;15.30;99.90
30399;DHT22;17195;50.838;7.214;2023-05-29T06:58:35;15.40;99.90
30399;DHT22;17195;50.838;7.214;2023-05-29T07:01:01;15.50;99.90
30399;DHT22;17195;50.838;7.214;2023-05-29T07:03:27;15.60;99.90
30399;DHT22;17195;50.838;7.214;2023-05-29T07:05:52;15.70;99.90
30399;DHT22;17195;50.838;7.214;2023-05-29T07:08:19;15.70;99.90
30399;DHT22;17195;50.838;7.214;2023-05-29T07:10:44;15.80;99.90
30399;DHT22;17195;50.838;7.214;2023-05-29T07:13:13;15.90;99.90
30399;DHT22;17195;50.838;7.214;2023-05-29T07:15:38;15.90;99.90
30399;DHT22;17195;50.838;7.214;2023-05-29T07:18:04;16.00;99.90
30399;DHT22;17195;50.838;7.214;2023-05-29T07:20:30;16.00;99.90
30399;DHT22;17195;50.838;7.214;2023-05-29T07:22:55;16.00;99.90
30399;DHT22;17195;50.838;7.214;2023-05-29T07:25:21;16.10;99.90
30399;DHT22;17195;50.838;7.214;2023-05-29T07:27:46;16.10;99.90
30399;DHT22;17195;50.838;7.214;2023-05-29T07:30:12;16.20;99.90
30399;DHT22;17195;50.838;7.214;2023-05-29T07:32:38;16.20;99.90
30399;DHT22;17195;50.838;7.214;2023-05-29T07:35:04;16.20;99.90
30399;DHT22;17195;50.838;7.214;2023-05-29T07:37:29;16.40;99.90
30399;DHT22;17195;50.838;7.214;2023-05-29T07:39:55;16.50;99.90
30399;DHT22;17195;50.838;7.214;2023-05-29T07:42:21;16.60;99.90
30399;DHT22;17195;50.838;7.214;2023-05-29T07:44:46;16.80;99.90
30399;DHT22;17195;50.838;7.214;2023-05-29T07:47:13;16.90;99.90
30399;DHT22;17195;50.838;7.214;2023-05-29T07:49:39;16.80;99.90
30399;DHT22;17195;50.838;7.214;2023-05-29T07:52:04;16.80;99.90
30399;DHT22;17195;50.838;7.214;2023-05-29T07:54:31;16.80;99.90
30399;DHT22;17195;50.838;7.214;2023-05-29T07:56:58;16.80;99.90
30399;DHT22;17195;50.838;7.214;2023-05-29T07:59:25;16.80;99.90
30399;DHT22;17195;50.838;7.214;2023-05-29T08:01:50;16.90;99.90
30399;DHT22;17195;50.838;7.214;2023-05-29T08:04:16;17.10;99.90
30399;DHT22;17195;50.838;7.214;2023-05-29T08:06:41;17.30;99.90
30399;DHT22;17195;50.838;7.214;2023-05-29T08:09:08;17.30;99.90
30399;DHT22;17195;50.838;7.214;2023-05-29T08:11:38;17.40;99.90
30399;DHT22;17195;50.838;7.214;2023-05-29T08:14:03;17.50;99.90
30399;DHT22;17195;50.838;7.214;2023-05-29T08:16:29;17.50;99.90
30399;DHT22;17195;50.838;7.214;2023-05-29T08:18:55;17.70;99.90
30399;DHT22;17195;50.838;7.214;2023-05-29T08:21:21;17.60;99.90
30399;DHT22;17195;50.838;7.214;2023-05-29T08:23:46;17.60;99.90
30399;DHT22;17195;50.838;7.214;2023-05-29T08:26:12;17.70;99.90
30399;DHT22;17195;50.838;7.214;2023-05-29T08:28:38;17.80;99.90
30399;DHT22;17195;50.838;7.214;2023-05-29T08:31:04;17.90;99.90
30399;DHT22;17195;50.838;7.214;2023-05-29T08:33:29;18.00;99.90
30399;DHT22;17195;50.838;7.214;2023-05-29T08:35:58;18.10;99.90
30399;DHT22;17195;50.838;7.214;2023-05-29T08:38:23;18.30;99.90
30399;DHT22;17195;50.838;7.214;2023-05-29T08:40:51;18.40;99.90
30399;DHT22;17195;50.838;7.214;2023-05-29T08:43:23;18.50;99.90
30399;DHT22;17195;50.838;7.214;2023-05-29T08:46:09;18.60;99.90
30399;DHT22;17195;50.838;7.214;2023-05-29T08:48:38;18.70;99.90
30399;DHT22;17195;50.838;7.214;2023-05-29T08:51:06;18.70;99.90
30399;DHT22;17195;50.838;7.214;2023-05-29T08:53:32;18.70;99.90
30399;DHT22;17195;50.838;7.214;2023-05-29T08:55:59;18.80;99.90
30399;DHT22;17195;50.838;7.214;2023-05-29T08:58:26;18.90;99.90
30399;DHT22;17195;50.838;7.214;2023-05-29T09:00:51;19.10;99.90
30399;DHT22;17195;50.838;7.214;2023-05-29T09:03:17;19.20;99.90
30399;DHT22;17195;50.838;7.214;2023-05-29T09:05:44;19.40;99.90
30399;DHT22;17195;50.838;7.214;2023-05-29T09:08:10;19.50;99.90
30399;DHT22;17195;50.838;7.214;2023-05-29T09:10:44;19.60;99.90
30399;DHT22;17195;50.838;7.214;2023-05-29T09:13:11;19.40;99.90
30399;DHT22;17195;50.838;7.214;2023-05-29T09:15:39;19.50;99.90
30399;DHT22;17195;50.838;7.214;2023-05-29T09:18:08;19.60;99.90
30399;DHT22;17195;50.838;7.214;2023-05-29T09:20:34;19.70;99.90
30399;DHT22;17195;50.838;7.214;2023-05-29T09:23:02;19.90;99.90
30399;DHT22;17195;50.838;7.214;2023-05-29T09:25:30;19.90;99.90
30399;DHT22;17195;50.838;7.214;2023-05-29T09:28:02;19.90;99.90
30399;DHT22;17195;50.838;7.214;2023-05-29T09:32:57;19.90;99.90
30399;DHT22;17195;50.838;7.214;2023-05-29T09:35:23;20.10;99.90
30399;DHT22;17195;50.838;7.214;2023-05-29T09:37:49;20.20;99.90
30399;DHT22;17195;50.838;7.214;2023-05-29T09:40:15;20.30;99.90
30399;DHT22;17195;50.838;7.214;2023-05-29T09:42:41;20.50;99.90
30399;DHT22;17195;50.838;7.214;2023-05-29T09:45:07;20.30;99.90
30399;DHT22;17195;50.838;7.214;2023-05-29T09:47:34;20.40;99.90
30399;DHT22;17195;50.838;7.214;2023-05-29T09:50:00;20.50;99.90
30399;DHT22;17195;50.838;7.214;2023-05-29T09:52:29;20.40;99.90
30399;DHT22;17195;50.838;7.214;2023-05-29T09:54:55;20.60;99.90
30399;DHT22;17195;50.838;7.214;2023-05-29T09:57:23;20.60;99.80
30399;DHT22;17195;50.838;7.214;2023-05-29T09:59:52;20.70;99.80
30399;DHT22;17195;50.838;7.214;2023-05-29T10:02:18;20.80;99.40
30399;DHT22;17195;50.838;7.214;2023-05-29T10:04:44;20.90;99.20
30399;DHT22;17195;50.838;7.214;2023-05-29T10:07:22;21.10;99.00
30399;DHT22;17195;50.838;7.214;2023-05-29T10:09:53;21.10;98.30
30399;DHT22;17195;50.838;7.214;2023-05-29T10:12:21;21.20;98.00
30399;DHT22;17195;50.838;7.214;2023-05-29T10:14:49;21.30;97.80
30399;DHT22;17195;50.838;7.214;2023-05-29T10:17:18;21.40;98.40
30399;DHT22;17195;50.838;7.214;2023-05-29T10:19:49;21.70;97.60
30399;DHT22;17195;50.838;7.214;2023-05-29T10:22:19;22.00;96.90
30399;DHT22;17195;50.838;7.214;2023-05-29T10:24:46;22.00;96.60
30399;DHT22;17195;50.838;7.214;2023-05-29T10:27:14;22.20;96.90
30399;DHT22;17195;50.838;7.214;2023-05-29T10:29:52;22.40;96.20
30399;DHT22;17195;50.838;7.214;2023-05-29T10:32:32;22.50;95.20
30399;DHT22;17195;50.838;7.214;2023-05-29T10:37:49;22.80;93.90
30399;DHT22;17195;50.838;7.214;2023-05-29T10:40:26;22.70;93.70
30399;DHT22;17195;50.838;7.214;2023-05-29T10:42:53;22.70;94.30
30399;DHT22;17195;50.838;7.214;2023-05-29T10:50:47;22.90;93.30
30399;DHT22;17195;50.838;7.214;2023-05-29T10:55:42;23.10;92.30
30399;DHT22;17195;50.838;7.214;2023-05-29T10:58:15;23.30;92.00
30399;DHT22;17195;50.838;7.214;2023-05-29T11:00:45;23.40;92.20
30399;DHT22;17195;50.838;7.214;2023-05-29T11:03:23;23.40;91.80
30399;DHT22;17195;50.838;7.214;2023-05-29T11:06:00;23.50;91.80
30399;DHT22;17195;50.838;7.214;2023-05-29T11:08:46;23.20;91.50
30399;DHT22;17195;50.838;7.214;2023-05-29T11:11:15;23.20;92.10
30399;DHT22;17195;50.838;7.214;2023-05-29T11:14:00;23.10;91.10
30399;DHT22;17195;50.838;7.214;2023-05-29T11:18:55;23.00;91.30
30399;DHT22;17195;50.838;7.214;2023-05-29T11:22:19;22.70;91.80
30399;DHT22;17195;50.838;7.214;2023-05-29T11:24:25;22.80;91.90
30399;DHT22;17195;50.838;7.214;2023-05-29T11:26:56;22.90;91.90
30399;DHT22;17195;50.838;7.214;2023-05-29T11:29:28;22.90;91.50
30399;DHT22;17195;50.838;7.214;2023-05-29T11:31:58;23.00;91.50
30399;DHT22;17195;50.838;7.214;2023-05-29T11:34:28;22.70;91.20
30399;DHT22;17195;50.838;7.214;2023-05-29T11:36:56;23.00;91.80
30399;DHT22;17195;50.838;7.214;2023-05-29T11:39:22;23.20;91.30
30399;DHT22;17195;50.838;7.214;2023-05-29T11:41:50;23.40;90.90
30399;DHT22;17195;50.838;7.214;2023-05-29T11:44:17;23.60;90.20
30399;DHT22;17195;50.838;7.214;2023-05-29T11:46:42;23.80;90.20
30399;DHT22;17195;50.838;7.214;2023-05-29T11:49:08;23.90;89.00
30399;DHT22;17195;50.838;7.214;2023-05-29T11:51:33;24.00;89.10
30399;DHT22;17195;50.838;7.214;2023-05-29T11:53:59;23.90;88.10
30399;DHT22;17195;50.838;7.214;2023-05-29T11:56:28;23.80;89.50
30399;DHT22;17195;50.838;7.214;2023-05-29T11:58:55;23.80;88.20
30399;DHT22;17195;50.838;7.214;2023-05-29T12:01:23;23.90;88.40
30399;DHT22;17195;50.838;7.214;2023-05-29T12:03:49;23.70;88.30
30399;DHT22;17195;50.838;7.214;2023-05-29T12:06:15;23.70;88.20
30399;DHT22;17195;50.838;7.214;2023-05-29T12:08:40;23.80;88.30
30399;DHT22;17195;50.838;7.214;2023-05-29T12:11:06;23.90;88.20
30399;DHT22;17195;50.838;7.214;2023-05-29T12:13:33;24.00;87.70
30399;DHT22;17195;50.838;7.214;2023-05-29T12:16:00;23.90;86.70
30399;DHT22;17195;50.838;7.214;2023-05-29T12:18:28;23.90;86.80
30399;DHT22;17195;50.838;7.214;2023-05-29T12:21:01;24.00;87.20
30399;DHT22;17195;50.838;7.214;2023-05-29T12:23:28;24.30;85.70
30399;DHT22;17195;50.838;7.214;2023-05-29T12:25:55;24.60;85.70
30399;DHT22;17195;50.838;7.214;2023-05-29T12:28:21;24.60;84.40
30399;DHT22;17195;50.838;7.214;2023-05-29T12:30:47;24.50;84.50
30399;DHT22;17195;50.838;7.214;2023-05-29T12:33:32;24.30;84.40
30399;DHT22;17195;50.838;7.214;2023-05-29T12:36:05;24.40;84.70
30399;DHT22;17195;50.838;7.214;2023-05-29T12:38:48;24.50;84.60
30399;DHT22;17195;50.838;7.214;2023-05-29T12:41:27;24.80;83.10
30399;DHT22;17195;50.838;7.214;2023-05-29T12:43:57;24.50;83.30
30399;DHT22;17195;50.838;7.214;2023-05-29T12:46:26;24.60;83.30
30399;DHT22;17195;50.838;7.214;2023-05-29T12:48:53;24.80;83.00
30399;DHT22;17195;50.838;7.214;2023-05-29T12:51:26;25.00;81.60
30399;DHT22;17195;50.838;7.214;2023-05-29T12:53:52;25.00;81.60
30399;DHT22;17195;50.838;7.214;2023-05-29T12:56:23;25.00;81.20
30399;DHT22;17195;50.838;7.214;2023-05-29T12:58:50;24.90;80.80
30399;DHT22;17195;50.838;7.214;2023-05-29T13:01:16;25.00;80.40
30399;DHT22;17195;50.838;7.214;2023-05-29T13:03:42;25.30;79.60
30399;DHT22;17195;50.838;7.214;2023-05-29T13:06:07;25.30;80.00
30399;DHT22;17195;50.838;7.214;2023-05-29T13:08:34;25.00;79.40
30399;DHT22;17195;50.838;7.214;2023-05-29T13:10:59;24.80;80.10
30399;DHT22;17195;50.838;7.214;2023-05-29T13:13:25;25.00;79.50
30399;DHT22;17195;50.838;7.214;2023-05-29T13:15:50;25.20;78.10
30399;DHT22;17195;50.838;7.214;2023-05-29T13:18:16;25.20;78.10
30399;DHT22;17195;50.838;7.214;2023-05-29T13:20:41;25.40;78.50
30399;DHT22;17195;50.838;7.214;2023-05-29T13:23:07;25.40;77.80
30399;DHT22;17195;50.838;7.214;2023-05-29T13:25:34;25.40;78.10
30399;DHT22;17195;50.838;7.214;2023-05-29T13:28:00;25.20;78.00
30399;DHT22;17195;50.838;7.214;2023-05-29T13:30:25;25.20;77.00
30399;DHT22;17195;50.838;7.214;2023-05-29T13:32:52;25.00;76.90
30399;DHT22;17195;50.838;7.214;2023-05-29T13:35:17;25.10;77.70
30399;DHT22;17195;50.838;7.214;2023-05-29T13:37:43;25.20;77.10
30399;DHT22;17195;50.838;7.214;2023-05-29T13:40:09;25.40;77.00
30399;DHT22;17195;50.838;7.214;2023-05-29T13:42:35;25.50;75.50
30399;DHT22;17195;50.838;7.214;2023-05-29T13:45:01;25.50;75.70
30399;DHT22;17195;50.838;7.214;2023-05-29T13:47:26;25.60;75.20
30399;DHT22;17195;50.838;7.214;2023-05-29T13:49:57;25.70;73.80
30399;DHT22;17195;50.838;7.214;2023-05-29T13:52:23;25.60;73.80
30399;DHT22;17195;50.838;7.214;2023-05-29T13:54:48;25.40;74.00
30399;DHT22;17195;50.838;7.214;2023-05-29T13:57:14;25.20;73.80
30399;DHT22;17195;50.838;7.214;2023-05-29T13:59:39;25.10;74.00
30399;DHT22;17195;50.838;7.214;2023-05-29T14:02:06;25.10;74.30
30399;DHT22;17195;50.838;7.214;2023-05-29T14:04:33;25.20;74.90
30399;DHT22;17195;50.838;7.214;2023-05-29T14:06:58;25.40;73.70
30399;DHT22;17195;50.838;7.214;2023-05-29T14:09:24;25.50;73.40
30399;DHT22;17195;50.838;7.214;2023-05-29T14:11:54;25.70;72.40
30399;DHT22;17195;50.838;7.214;2023-05-29T14:14:20;25.80;72.50
30399;DHT22;17195;50.838;7.214;2023-05-29T14:16:46;25.90;71.40
30399;DHT22;17195;50.838;7.214;2023-05-29T14:19:11;25.90;71.20
30399;DHT22;17195;50.838;7.214;2023-05-29T14:21:37;25.90;70.60
30399;DHT22;17195;50.838;7.214;2023-05-29T14:24:02;26.00;70.70
30399;DHT22;17195;50.838;7.214;2023-05-29T14:26:28;26.30;70.00
30399;DHT22;17195;50.838;7.214;2023-05-29T14:28:53;26.60;69.40
30399;DHT22;17195;50.838;7.214;2023-05-29T14:31:19;26.50;69.20
30399;DHT22;17195;50.838;7.214;2023-05-29T14:33:45;26.00;70.10
30399;DHT22;17195;50.838;7.214;2023-05-29T14:36:10;26.30;70.40
30399;DHT22;17195;50.838;7.214;2023-05-29T14:38:36;26.80;69.10
30399;DHT22;17195;50.838;7.214;2023-05-29T14:41:02;26.50;68.30
30399;DHT22;17195;50.838;7.214;2023-05-29T14:43:27;26.40;67.80
30399;DHT22;17195;50.838;7.214;2023-05-29T14:45:53;26.50;68.60
30399;DHT22;17195;50.838;7.214;2023-05-29T14:48:18;26.40;68.40
30399;DHT22;17195;50.838;7.214;2023-05-29T14:50:44;26.90;67.50
30399;DHT22;17195;50.838;7.214;2023-05-29T14:53:09;27.30;66.90
30399;DHT22;17195;50.838;7.214;2023-05-29T14:55:35;27.70;65.40
30399;DHT22;17195;50.838;7.214;2023-05-29T14:58:04;28.00;64.00
30399;DHT22;17195;50.838;7.214;2023-05-29T15:00:30;28.10;63.60
30399;DHT22;17195;50.838;7.214;2023-05-29T15:02:56;28.00;63.20
30399;DHT22;17195;50.838;7.214;2023-05-29T15:05:25;28.30;63.10
30399;DHT22;17195;50.838;7.214;2023-05-29T15:07:51;28.20;61.90
30399;DHT22;17195;50.838;7.214;2023-05-29T15:10:17;28.40;62.10
30399;DHT22;17195;50.838;7.214;2023-05-29T15:12:45;29.10;60.60
30399;DHT22;17195;50.838;7.214;2023-05-29T15:15:11;30.20;59.70
30399;DHT22;17195;50.838;7.214;2023-05-29T15:17:37;32.30;57.00
30399;DHT22;17195;50.838;7.214;2023-05-29T15:20:04;34.90;52.20
30399;DHT22;17195;50.838;7.214;2023-05-29T15:22:29;37.00;46.80
30399;DHT22;17195;50.838;7.214;2023-05-29T15:24:55;38.30;43.00
30399;DHT22;17195;50.838;7.214;2023-05-29T15:27:21;39.40;39.70
30399;DHT22;17195;50.838;7.214;2023-05-29T15:29:46;40.20;37.30
30399;DHT22;17195;50.838;7.214;2023-05-29T15:32:12;40.30;35.00
30399;DHT22;17195;50.838;7.214;2023-05-29T15:34:37;39.80;34.10
30399;DHT22;17195;50.838;7.214;2023-05-29T15:37:05;38.50;34.70
30399;DHT22;17195;50.838;7.214;2023-05-29T15:39:31;38.80;34.50
30399;DHT22;17195;50.838;7.214;2023-05-29T15:41:56;38.20;34.30
30399;DHT22;17195;50.838;7.214;2023-05-29T15:44:22;38.10;34.50
30399;DHT22;17195;50.838;7.214;2023-05-29T15:46:47;38.60;33.50
30399;DHT22;17195;50.838;7.214;2023-05-29T15:49:13;39.30;34.00
30399;DHT22;17195;50.838;7.214;2023-05-29T15:51:39;40.10;31.80